Ashley, MI

12:37 PM EDT on July 30, 2015 (GMT -0400)
Hoovers Corners | | Change Station
CLOSE
Current Station
Personal Weather Station
Location: Elsie, MI
Elevation: 741 ft
Nearby Weather Stations

Elev 741 ft 43.10 °N, 84.34 °W | Updated 6 minutes ago

Clear
Clear
79.8 °F
Feels Like 81 °F
N
4.0
Wind Variable Wind from WNW
Gusts 15.0 mph

Today
High -- | Low -- °F
--% Chance of Precip.
Yesterday
High -- | Low -- °F
Precip. -- in
6:26 AM 9:02 PM
Waxing Gibbous, 99% visible
Pressure 29.96 in
Visibility 10.0 miles
Clouds Scattered Clouds 5500 ft
Heat Index 81 °F
Dew Point 64 °F
Humidity 59%
Rainfall 0.00 in
Snow Depth Not available.
UV 8 out of 12
Pollen 6.30 out of 12
Air Quality Not available.
Flu Activity Not available.
METAR KAMN 301630Z AUTO 29010G21KT 10SM SCT055 27/13 A2996 RMK AO2 T02690129

More Conditions Fewer Conditions

Pressure 29.96 in
Visibility 10.0 miles
Clouds Scattered Clouds 5500 ft
Heat Index 81 °F
Dew Point 64 °F
Humidity 59%
Rainfall 0.00 in
Snow Depth Not available.
UV 8 out of 12
Pollen 6.30 out of 12
Air Quality Not available.
Flu Activity Not available.
METAR KAMN 301630Z AUTO 29010G21KT 10SM SCT055 27/13 A2996 RMK AO2 T02690129

More Conditions Fewer Conditions

10-Day Weather Forecast

×

Almanac

Astronomy

Jul. 30, 2015 Rise Set
Actual Time
Civil Twilight
Nautical Twilight
Astronomical Twilight
Moon
Length of Visible Light
Length of Day
Tomorrow will be .
, % of the Moon is Illuminated

Today's Extremes

State Highs State Lows

Community

WunderPhotos

Upload Photos

1,842,418 photos uploaded!

WunderBlogs® & News

Nearby

Air Quality

  Air Quality AQ Index Pollutant
Not available.

Snow Depth

Station Depth Elevation

Earthquake Activity

City Distance Mag. Time & Date
Minimum magnitude displayed is 2.5.

Coastal Water Temperatures

Place Temperature

Stations

Nearby Weather Stations

Station Location Temp. Windchill Dew Point Humidity Wind Precip. Elev Updated Type